Time;durP1;ratioP1;P1;durP2;ratioP2;P2;SDS_P1;SDS_P2;PMS_P1;PMS_P2;Temp;Humidity;BMP_temperature;BMP_pressure;BME280_temperature;BME280_humidity;BME280_pressure;Samples;Min_cycle;Max_cycle;Signal;HPM_P1;HPM_P2
2021/05/05 00:02:08;;;;;;;13.60;3.97;;;;;;;5.70;82.27;100325.06;5016405;28;20065;-72
2021/05/05 00:04:35;;;;;;;10.43;3.85;;;;;;;5.74;82.23;100340.00;5020662;28;20140;-72
2021/05/05 00:07:02;;;;;;;10.20;3.10;;;;;;;5.82;83.06;100337.19;5028260;28;20053;-73
2021/05/05 00:09:29;;;;;;;14.23;4.30;;;;;;;5.77;83.29;100335.53;5018430;28;20068;-72
2021/05/05 00:11:56;;;;;;;8.10;3.25;;;;;;;5.73;83.62;100341.75;5017282;28;20072;-72
2021/05/05 00:14:23;;;;;;;11.32;3.17;;;;;;;5.73;84.22;100338.25;5013432;28;21456;-71
2021/05/05 00:16:51;;;;;;;11.75;3.28;;;;;;;5.73;84.42;100344.41;5031350;28;20123;-72
2021/05/05 00:19:18;;;;;;;13.50;3.97;;;;;;;5.66;84.50;100336.63;5014383;28;20057;-71
2021/05/05 00:21:45;;;;;;;13.20;3.95;;;;;;;5.70;85.27;100348.91;5018528;28;20077;-73
2021/05/05 00:24:12;;;;;;;8.98;3.50;;;;;;;5.71;84.53;100342.72;5013587;28;20069;-73
2021/05/05 00:26:39;;;;;;;18.63;5.65;;;;;;;5.76;84.70;100338.19;5017494;28;20057;-73
2021/05/05 00:29:07;;;;;;;21.98;7.10;;;;;;;5.69;84.79;100334.81;5017276;28;20108;-72
2021/05/05 00:31:34;;;;;;;18.20;6.43;;;;;;;5.74;83.79;100325.00;5017334;28;20315;-73
2021/05/05 00:34:04;;;;;;;12.60;5.38;;;;;;;5.70;83.47;100325.06;5017681;28;20057;-72
2021/05/05 00:36:31;;;;;;;10.05;4.90;;;;;;;5.74;83.22;100329.44;5016787;28;20064;-73
2021/05/05 00:38:58;;;;;;;20.20;5.95;;;;;;;5.74;83.19;100326.78;5017225;28;20097;-73
2021/05/05 00:41:26;;;;;;;15.85;5.15;;;;;;;5.71;83.57;100322.41;5014485;28;20148;-72
2021/05/05 00:43:53;;;;;;;11.45;3.67;;;;;;;5.75;82.97;100332.00;5016259;28;20128;-72
2021/05/05 00:46:20;;;;;;;11.38;4.25;;;;;;;5.72;83.80;100331.19;5013862;28;20054;-72
2021/05/05 00:48:47;;;;;;;10.43;4.22;;;;;;;5.67;83.49;100331.31;5017599;28;20063;-72
2021/05/05 00:51:15;;;;;;;13.90;4.25;;;;;;;5.66;83.49;100339.28;5015834;28;20505;-72
2021/05/05 00:53:41;;;;;;;12.68;4.13;;;;;;;5.65;84.54;100329.59;5014241;28;20100;-69
2021/05/05 00:56:09;;;;;;;11.05;3.80;;;;;;;5.38;83.55;100331.84;5012762;28;20352;-69
2021/05/05 00:58:36;;;;;;;12.73;3.40;;;;;;;5.32;84.42;100337.28;5014016;28;20068;-71
2021/05/05 01:01:04;;;;;;;10.32;4.10;;;;;;;5.34;84.98;100324.88;5018553;28;20107;-72
2021/05/05 01:03:32;;;;;;;13.30;4.60;;;;;;;5.38;85.46;100327.47;5016328;28;20110;-72
2021/05/05 01:06:01;;;;;;;10.77;4.00;;;;;;;5.38;85.42;100322.16;5012117;28;20151;-72
2021/05/05 01:08:31;;;;;;;12.90;4.40;;;;;;;5.46;85.19;100329.09;5013443;28;20172;-71
2021/05/05 01:10:59;;;;;;;15.18;4.28;;;;;;;5.47;84.92;100328.19;5011960;28;20318;-73
2021/05/05 01:13:26;;;;;;;12.23;4.25;;;;;;;5.49;84.07;100326.38;5016814;28;21525;-72
2021/05/05 01:15:53;;;;;;;12.93;5.45;;;;;;;5.52;83.88;100343.06;5014084;28;20535;-72
2021/05/05 01:18:20;;;;;;;12.00;4.82;;;;;;;5.56;82.87;100335.94;5019752;28;20132;-72
2021/05/05 01:20:47;;;;;;;10.02;4.35;;;;;;;5.56;82.63;100323.56;5011218;28;20119;-72
2021/05/05 01:23:15;;;;;;;12.57;4.10;;;;;;;5.57;82.04;100321.81;5018757;28;20056;-72
2021/05/05 01:25:42;;;;;;;14.13;4.30;;;;;;;5.51;82.59;100325.44;5015863;28;20122;-72
2021/05/05 01:28:08;;;;;;;7.03;3.38;;;;;;;5.52;82.29;100316.59;5014063;28;20076;-73
2021/05/05 01:30:35;;;;;;;14.55;4.32;;;;;;;5.52;82.86;100324.53;5017682;28;20064;-72
2021/05/05 01:33:02;;;;;;;8.85;3.72;;;;;;;5.49;83.58;100319.31;5011297;28;20144;-73
2021/05/05 01:35:29;;;;;;;10.27;3.88;;;;;;;5.38;81.85;100318.63;5016375;28;20072;-74
2021/05/05 01:37:56;;;;;;;11.60;4.15;;;;;;;5.39;83.04;100320.38;5010992;28;20087;-74
2021/05/05 01:40:30;;;;;;;11.75;3.50;;;;;;;5.35;82.96;100329.28;5018767;28;20057;-73
2021/05/05 01:42:59;;;;;;;12.68;4.22;;;;;;;5.35;82.34;100326.66;5011205;28;20065;-73
2021/05/05 01:45:26;;;;;;;7.40;3.40;;;;;;;5.36;81.32;100334.56;5013096;28;20156;-73
2021/05/05 01:47:54;;;;;;;10.50;4.28;;;;;;;5.35;82.33;100331.94;5018364;28;20065;-73
2021/05/05 01:50:22;;;;;;;14.43;5.45;;;;;;;5.31;81.18;100331.13;5018442;28;20058;-73
2021/05/05 01:52:49;;;;;;;13.95;5.22;;;;;;;5.35;82.00;100337.22;5020954;28;20092;-74
2021/05/05 01:55:15;;;;;;;14.88;4.82;;;;;;;5.31;81.27;100323.19;5016566;28;20476;-73
2021/05/05 01:57:46;;;;;;;12.35;4.28;;;;;;;5.31;81.81;100319.66;5019054;28;20144;-73
2021/05/05 02:00:15;;;;;;;14.40;4.55;;;;;;;5.33;80.96;100321.38;5012848;28;20100;-73
2021/05/05 02:02:42;;;;;;;13.35;4.47;;;;;;;5.29;81.70;100326.75;5013510;28;20061;-73
2021/05/05 02:05:10;;;;;;;10.27;4.15;;;;;;;5.31;81.47;100333.78;5017573;28;20199;-73
2021/05/05 02:07:38;;;;;;;14.68;3.65;;;;;;;5.36;81.30;100318.69;5034455;28;20061;-73
2021/05/05 02:10:08;;;;;;;13.63;4.18;;;;;;;5.37;81.04;100315.13;5020926;28;20095;-73
2021/05/05 02:12:35;;;;;;;12.07;3.88;;;;;;;5.44;80.78;100323.81;5016354;28;20153;-79
2021/05/05 02:15:03;;;;;;;15.13;4.97;;;;;;;5.46;81.30;100323.78;5021070;28;20441;-78
2021/05/05 02:17:30;;;;;;;11.95;4.38;;;;;;;5.49;81.80;100329.91;5019711;28;20061;-78
2021/05/05 02:19:58;;;;;;;14.18;5.05;;;;;;;5.46;81.15;100323.78;5020341;28;20057;-78
2021/05/05 02:22:25;;;;;;;12.20;5.07;;;;;;;5.48;81.16;100328.13;5036034;28;20349;-78
2021/05/05 02:24:52;;;;;;;16.20;4.40;;;;;;;5.44;79.92;100323.81;5017483;28;20081;-80
2021/05/05 02:27:19;;;;;;;12.05;3.70;;;;;;;5.42;79.79;100325.63;5018852;28;20085;-78
2021/05/05 02:29:46;;;;;;;15.98;5.03;;;;;;;5.40;79.56;100319.50;5023295;28;20175;-79
2021/05/05 02:32:16;;;;;;;13.80;4.75;;;;;;;5.47;79.00;100333.47;5039787;28;20315;-79
2021/05/05 02:34:43;;;;;;;10.18;3.28;;;;;;;5.49;78.59;100329.03;5032451;28;21616;-78
2021/05/05 02:37:10;;;;;;;8.45;3.53;;;;;;;5.51;79.50;100332.50;5019618;28;20072;-79
2021/05/05 02:39:39;;;;;;;8.25;3.35;;;;;;;5.52;78.94;100334.28;5016431;28;20093;-78
2021/05/05 02:42:06;;;;;;;10.65;4.40;;;;;;;5.47;79.07;100329.06;5021162;28;20496;-78
2021/05/05 02:44:33;;;;;;;10.10;3.75;;;;;;;5.47;79.47;100349.38;5017814;28;20467;-72
2021/05/05 02:47:02;;;;;;;10.57;3.78;;;;;;;5.18;79.94;100335.75;5016210;28;20164;-71
2021/05/05 02:49:31;;;;;;;10.13;3.45;;;;;;;5.08;79.33;100334.19;5028765;28;20069;-75
2021/05/05 02:51:59;;;;;;;7.78;2.75;;;;;;;5.04;80.92;100340.44;5016393;28;20084;-75
2021/05/05 02:54:26;;;;;;;9.30;3.55;;;;;;;5.00;81.10;100346.66;5018246;28;20217;-76
2021/05/05 02:56:53;;;;;;;10.93;3.03;;;;;;;4.92;81.06;100353.84;5018713;28;20057;-75
2021/05/05 02:59:19;;;;;;;5.95;2.50;;;;;;;4.78;81.79;100354.94;5037598;28;20416;-74
2021/05/05 03:01:46;;;;;;;6.35;2.47;;;;;;;4.77;82.00;100355.84;5012066;28;20060;-75
2021/05/05 03:04:13;;;;;;;7.40;3.13;;;;;;;4.67;82.58;100354.25;5018553;28;20057;-75
2021/05/05 03:06:41;;;;;;;8.55;2.88;;;;;;;4.66;82.35;100350.69;5014926;28;20065;-75
2021/05/05 03:09:08;;;;;;;7.22;3.42;;;;;;;4.63;82.83;100347.25;5016050;28;20479;-74
2021/05/05 03:11:36;;;;;;;7.63;3.38;;;;;;;4.63;83.37;100357.81;5027495;28;20092;-75
2021/05/05 03:14:03;;;;;;;10.30;3.13;;;;;;;4.57;84.18;100360.56;5015490;28;20645;-75
2021/05/05 03:16:30;;;;;;;10.52;3.45;;;;;;;4.55;85.19;100359.72;5018655;28;20061;-75
2021/05/05 03:18:58;;;;;;;15.30;4.05;;;;;;;4.52;84.77;100360.63;5033759;28;20725;-76
2021/05/05 03:21:25;;;;;;;10.73;3.58;;;;;;;4.53;85.54;100361.50;5032691;28;20061;-75
2021/05/05 03:23:52;;;;;;;8.35;3.28;;;;;;;4.54;86.34;100376.47;5018726;28;20151;-75
2021/05/05 03:26:19;;;;;;;9.57;3.05;;;;;;;4.55;86.04;100371.16;5015646;28;20428;-75
2021/05/05 03:28:46;;;;;;;10.45;3.42;;;;;;;4.46;86.01;100377.44;5038362;28;20107;-75
2021/05/05 03:31:13;;;;;;;11.05;3.60;;;;;;;4.47;86.14;100381.81;5014267;28;20069;-75
2021/05/05 03:33:39;;;;;;;6.28;3.05;;;;;;;4.43;86.42;100387.19;5020010;28;20297;-75
2021/05/05 03:36:07;;;;;;;9.25;3.35;;;;;;;4.27;86.42;100378.59;5014378;28;20072;-74
2021/05/05 03:38:33;;;;;;;8.52;2.88;;;;;;;4.14;85.70;100380.53;5014999;28;20060;-75
2021/05/05 03:41:01;;;;;;;11.15;3.80;;;;;;;3.99;85.37;100364.88;5017959;28;20072;-74
2021/05/05 03:43:28;;;;;;;6.07;2.67;;;;;;;3.97;85.58;100371.94;5015327;28;20068;-73
2021/05/05 03:45:55;;;;;;;6.68;2.30;;;;;;;3.93;85.78;100372.00;5013484;28;20252;-74
2021/05/05 03:48:23;;;;;;;10.70;3.13;;;;;;;3.90;85.97;100361.47;5014779;28;20144;-74
2021/05/05 03:50:50;;;;;;;8.43;3.55;;;;;;;3.95;86.30;100357.88;5013422;28;20058;-75
2021/05/05 03:53:17;;;;;;;10.30;3.38;;;;;;;4.00;86.22;100362.22;5013605;28;20066;-71
2021/05/05 03:55:44;;;;;;;11.05;3.35;;;;;;;4.05;86.32;100383.28;5019215;28;20064;-74
2021/05/05 03:58:11;;;;;;;9.88;3.63;;;;;;;4.17;86.65;100375.22;5010851;28;20070;-73
2021/05/05 04:00:38;;;;;;;11.38;3.50;;;;;;;4.15;87.14;100382.25;5016930;28;20065;-72
2021/05/05 04:03:05;;;;;;;12.63;3.58;;;;;;;4.18;86.76;100386.63;5030518;28;20096;-70
2021/05/05 04:05:32;;;;;;;6.38;3.58;;;;;;;4.22;87.15;100377.78;5018522;28;20057;-70
2021/05/05 04:07:59;;;;;;;8.40;3.30;;;;;;;4.22;86.78;100370.75;5016212;28;20061;-70
2021/05/05 04:10:26;;;;;;;5.35;2.70;;;;;;;4.20;86.56;100375.16;5014797;28;20053;-71
2021/05/05 04:12:56;;;;;;;9.90;3.90;;;;;;;4.24;86.13;100390.06;5014966;28;20365;-71
2021/05/05 04:15:42;;;;;;;9.38;3.20;;;;;;;4.20;86.59;100387.50;5011438;28;20469;-71
2021/05/05 04:18:27;;;;;;;7.32;2.65;;;;;;;4.19;87.30;100393.66;5014634;28;22246;-71
2021/05/05 04:21:13;;;;;;;4.30;2.38;;;;;;;4.01;86.09;100394.78;5016025;28;20065;-70
2021/05/05 04:23:58;;;;;;;4.90;2.17;;;;;;;4.00;86.50;100401.84;5014739;28;20411;-70
2021/05/05 04:26:25;;;;;;;7.10;2.72;;;;;;;3.85;86.99;100405.50;5017458;28;20479;-71
2021/05/05 04:28:52;;;;;;;9.40;3.05;;;;;;;3.80;86.67;100403.78;5012717;28;20061;-68
2021/05/05 04:31:20;;;;;;;11.18;4.13;;;;;;;3.81;85.37;100392.38;5016032;28;20062;-68
2021/05/05 04:33:47;;;;;;;8.93;3.53;;;;;;;3.88;86.25;100408.13;5011469;28;20054;-69
2021/05/05 04:36:14;;;;;;;9.07;3.60;;;;;;;3.81;85.45;100416.13;5018428;28;20459;-69
2021/05/05 04:38:42;;;;;;;12.13;3.70;;;;;;;3.74;86.09;100410.88;5015086;28;20061;-69
2021/05/05 04:41:09;;;;;;;11.63;3.72;;;;;;;3.78;85.79;100397.66;5016945;28;20053;-71
2021/05/05 04:43:36;;;;;;;10.02;3.47;;;;;;;3.80;86.46;100402.06;5014556;28;20109;-70
2021/05/05 04:46:03;;;;;;;10.13;3.85;;;;;;;3.81;86.76;100395.88;5010136;28;20056;-70
2021/05/05 04:48:31;;;;;;;9.82;4.25;;;;;;;3.90;87.17;100398.41;5017864;28;20072;-70
2021/05/05 04:50:58;;;;;;;9.82;4.43;;;;;;;3.90;87.21;100408.97;5011417;28;20072;-74
2021/05/05 04:53:25;;;;;;;15.60;4.20;;;;;;;3.92;87.69;100416.88;5016429;28;20097;-74
2021/05/05 04:55:52;;;;;;;13.57;4.53;;;;;;;3.97;88.13;100416.81;5011599;28;20072;-74
2021/05/05 04:58:19;;;;;;;10.20;4.15;;;;;;;4.00;87.88;100422.06;5014433;28;20080;-74
2021/05/05 05:00:47;;;;;;;11.43;4.40;;;;;;;4.17;87.26;100417.47;5028906;28;20132;-72
2021/05/05 05:03:14;;;;;;;12.27;4.75;;;;;;;4.17;87.76;100429.78;5017458;28;20105;-71
2021/05/05 05:05:42;;;;;;;18.77;5.20;;;;;;;4.24;87.40;100419.13;5009870;28;20320;-70
2021/05/05 05:08:10;;;;;;;13.20;5.47;;;;;;;4.38;87.46;100421.59;5017048;28;20052;-71
2021/05/05 05:10:36;;;;;;;18.45;5.65;;;;;;;4.55;86.86;100428.44;5030688;28;20069;-71
2021/05/05 05:13:04;;;;;;;19.00;5.72;;;;;;;4.68;85.91;100427.34;5012703;28;20093;-71
2021/05/05 05:15:32;;;;;;;15.82;5.07;;;;;;;4.76;85.54;100432.53;5017605;28;20065;-71
2021/05/05 05:17:59;;;;;;;15.68;5.30;;;;;;;4.84;84.93;100442.09;5027476;28;20076;-71
2021/05/05 05:20:26;;;;;;;14.50;4.25;;;;;;;4.90;84.97;100440.25;5019057;28;20513;-71
2021/05/05 05:22:55;;;;;;;11.52;3.83;;;;;;;4.96;81.29;100434.88;5012342;28;20311;-72
2021/05/05 05:25:24;;;;;;;14.40;4.13;;;;;;;5.36;82.17;100439.50;5009911;28;20062;-73
2021/05/05 05:27:52;;;;;;;12.65;4.15;;;;;;;5.39;80.87;100444.75;5013623;28;20088;-72
2021/05/05 05:30:20;;;;;;;16.75;4.65;;;;;;;5.64;80.19;100445.19;5017456;28;20112;-71
2021/05/05 05:32:48;;;;;;;8.75;3.75;;;;;;;5.80;79.65;100446.63;5014190;28;20083;-72
2021/05/05 05:35:16;;;;;;;16.85;4.78;;;;;;;5.74;78.00;100444.13;5009964;28;20445;-72
2021/05/05 05:37:42;;;;;;;10.05;3.83;;;;;;;6.07;78.54;100443.53;5016612;28;20515;-72
2021/05/05 05:40:11;;;;;;;12.00;3.88;;;;;;;6.25;77.60;100439.63;5014639;28;20163;-74
2021/05/05 05:42:38;;;;;;;16.13;5.30;;;;;;;6.45;77.72;100437.47;5014466;28;20424;-72
2021/05/05 05:45:07;;;;;;;10.93;3.95;;;;;;;6.24;78.37;100441.41;5012410;28;20129;-74
2021/05/05 05:47:38;;;;;;;8.40;3.45;;;;;;;6.40;77.18;100435.81;5012177;28;20057;-72
2021/05/05 05:50:07;;;;;;;12.27;4.18;;;;;;;6.13;77.72;100438.09;5013050;28;20069;-72
2021/05/05 05:52:35;;;;;;;14.13;4.55;;;;;;;6.49;77.89;100451.53;5009442;28;20848;-71
2021/05/05 05:55:03;;;;;;;11.20;3.85;;;;;;;6.70;76.71;100437.78;5016868;28;20461;-72
2021/05/05 05:57:32;;;;;;;17.73;5.75;;;;;;;7.19;75.80;100446.38;5011173;28;20063;-73
2021/05/05 05:59:59;;;;;;;14.05;4.80;;;;;;;7.05;75.45;100451.16;5032862;28;20061;-73
2021/05/05 06:02:26;;;;;;;15.45;4.55;;;;;;;7.12;75.95;100463.38;5014587;28;20156;-72
2021/05/05 06:04:53;;;;;;;11.02;4.38;;;;;;;7.42;75.41;100463.50;5015373;28;20086;-72
2021/05/05 06:07:20;;;;;;;13.85;4.50;;;;;;;6.57;73.99;100460.16;5017089;28;20053;-71
2021/05/05 06:09:47;;;;;;;19.08;5.57;;;;;;;6.50;75.84;100455.91;5013437;28;20069;-72
2021/05/05 06:12:13;;;;;;;13.75;4.72;;;;;;;6.31;76.57;100471.31;5014907;28;20334;-72
2021/05/05 06:14:42;;;;;;;12.05;4.80;;;;;;;6.10;76.36;100473.50;5010338;28;20414;-71
2021/05/05 06:17:08;;;;;;;11.25;5.05;;;;;;;5.97;77.38;100494.03;5018299;28;20076;-72
2021/05/05 06:19:35;;;;;;;8.93;3.50;;;;;;;5.74;77.49;100506.81;5011519;28;20062;-77
2021/05/05 06:22:03;;;;;;;9.75;2.95;;;;;;;5.18;78.24;100517.41;5018352;28;20074;-78
2021/05/05 06:24:31;;;;;;;6.13;2.90;;;;;;;4.87;80.35;100525.78;5025436;28;20406;-77
2021/05/05 06:26:58;;;;;;;4.30;2.17;;;;;;;4.53;81.28;100520.94;5014668;28;20367;-75
2021/05/05 06:29:25;;;;;;;5.63;2.13;;;;;;;4.53;82.19;100535.88;5011840;28;20247;-74
2021/05/05 06:31:53;;;;;;;4.10;1.67;;;;;;;4.60;83.39;100534.94;5013306;28;20061;-74
2021/05/05 06:34:20;;;;;;;8.45;2.30;;;;;;;4.59;82.73;100527.91;5015763;28;20246;-74
2021/05/05 06:36:46;;;;;;;5.63;1.90;;;;;;;4.70;83.95;100533.94;5014626;28;20083;-74
2021/05/05 06:39:13;;;;;;;5.50;2.33;;;;;;;4.93;83.24;100541.53;5020569;28;20056;-74
2021/05/05 06:41:41;;;;;;;5.60;2.55;;;;;;;5.38;82.14;100538.25;5013997;28;20053;-75
2021/05/05 06:44:08;;;;;;;7.13;2.53;;;;;;;5.36;82.43;100551.53;5017344;28;20057;-75
2021/05/05 06:46:42;;;;;;;13.45;2.95;;;;;;;5.08;81.92;100553.69;5013703;28;20177;-75
2021/05/05 06:49:11;;;;;;;7.43;2.47;;;;;;;4.93;82.41;100568.00;5016030;28;20077;-74
2021/05/05 06:51:38;;;;;;;5.57;2.60;;;;;;;4.91;82.97;100579.50;5013686;28;21550;-71
2021/05/05 06:54:06;;;;;;;4.68;2.25;;;;;;;4.66;82.93;100582.44;5012097;28;20065;-73
2021/05/05 06:56:33;;;;;;;4.72;2.47;;;;;;;4.53;83.23;100584.34;5017064;28;20077;-75
2021/05/05 06:59:00;;;;;;;9.45;2.88;;;;;;;4.43;84.17;100593.28;5011418;28;20053;-74
2021/05/05 07:01:27;;;;;;;6.80;2.90;;;;;;;4.37;84.66;100599.47;5012630;28;20061;-75
2021/05/05 07:03:54;;;;;;;9.27;2.70;;;;;;;4.59;84.75;100597.47;5015462;28;20140;-75
2021/05/05 07:06:21;;;;;;;6.45;2.60;;;;;;;4.61;84.48;100581.59;5008546;28;20063;-74
2021/05/05 07:08:48;;;;;;;11.85;3.05;;;;;;;4.67;84.21;100585.06;5016221;28;20057;-71
2021/05/05 07:11:16;;;;;;;8.63;2.65;;;;;;;4.81;83.64;100578.72;5011709;28;20064;-72
2021/05/05 07:13:43;;;;;;;11.77;2.70;;;;;;;5.03;84.11;100566.09;5013680;28;20053;-71
2021/05/05 07:16:14;;;;;;;8.57;2.60;;;;;;;5.07;83.01;100564.28;5012164;28;20144;-71
2021/05/05 07:18:41;;;;;;;8.35;3.22;;;;;;;5.16;82.63;100580.91;5016494;28;20053;-71
2021/05/05 07:21:08;;;;;;;12.85;3.88;;;;;;;5.28;82.69;100590.44;5013422;28;20072;-71
2021/05/05 07:23:36;;;;;;;13.80;5.28;;;;;;;5.53;82.52;100580.34;5026950;28;20449;-71
2021/05/05 07:26:03;;;;;;;13.88;4.18;;;;;;;6.07;81.08;100582.16;5016083;28;20054;-71
2021/05/05 07:28:30;;;;;;;13.20;5.03;;;;;;;6.06;81.48;100585.72;5009765;28;20212;-70
2021/05/05 07:30:58;;;;;;;14.00;5.43;;;;;;;6.48;82.40;100577.00;5018660;28;20103;-71
2021/05/05 07:33:25;;;;;;;15.18;4.70;;;;;;;6.47;81.15;100581.44;5012582;28;20090;-73
2021/05/05 07:35:55;;;;;;;18.48;4.93;;;;;;;6.25;79.23;100588.91;5018956;28;20061;-72
2021/05/05 07:38:36;;;;;;;16.98;5.60;;;;;;;6.22;79.53;100601.34;5028649;28;20445;-73
2021/05/05 07:41:45;;;;;;;14.07;4.32;;;;;;;5.59;81.05;100622.63;5019263;28;20080;-75
2021/05/05 07:46:58;;;;;;;11.68;5.20;;;;;;;5.56;83.09;100604.13;5021737;28;20053;-74
2021/05/05 07:49:32;;;;;;;11.57;3.60;;;;;;;5.63;80.55;100614.63;5014348;28;20089;-75
2021/05/05 07:51:58;;;;;;;14.07;3.80;;;;;;;6.40;80.20;100608.94;5017423;28;20065;-75
2021/05/05 07:54:24;;;;;;;13.85;4.43;;;;;;;6.35;81.26;100624.94;5031094;28;20061;-75
2021/05/05 07:56:51;;;;;;;9.70;3.78;;;;;;;6.17;80.81;100617.31;5016012;28;20337;-76
2021/05/05 07:59:18;;;;;;;11.23;3.67;;;;;;;6.22;78.84;100617.25;5015139;28;20116;-77
2021/05/05 08:01:46;;;;;;;11.57;3.50;;;;;;;6.65;78.98;100619.97;5017792;28;20148;-74
2021/05/05 08:04:13;;;;;;;12.40;2.92;;;;;;;7.35;76.15;100622.06;5015901;28;20069;-75
2021/05/05 08:06:40;;;;;;;8.82;2.90;;;;;;;7.34;76.47;100627.38;5017307;28;20068;-77
2021/05/05 08:09:07;;;;;;;10.65;2.83;;;;;;;7.91;73.75;100620.78;5015291;28;20085;-77
2021/05/05 08:11:34;;;;;;;12.10;3.55;;;;;;;8.08;73.26;100647.78;5017634;28;20064;-77
2021/05/05 08:14:02;;;;;;;13.63;3.30;;;;;;;7.92;74.12;100631.38;5015795;28;20088;-76
2021/05/05 08:16:29;;;;;;;17.05;4.40;;;;;;;7.92;71.46;100634.03;5017800;28;20061;-78
2021/05/05 08:18:56;;;;;;;15.20;3.53;;;;;;;8.28;73.71;100635.81;5016603;28;20070;-78
2021/05/05 08:21:24;;;;;;;9.00;3.22;;;;;;;8.06;72.73;100649.63;5018315;28;20152;-78
2021/05/05 08:23:51;;;;;;;9.38;3.15;;;;;;;8.39;72.35;100645.25;5030177;28;20386;-77
2021/05/05 08:26:18;;;;;;;10.60;4.15;;;;;;;8.32;71.05;100645.44;5015632;28;20069;-78
2021/05/05 08:28:44;;;;;;;10.57;3.38;;;;;;;8.54;69.81;100651.97;5016770;28;20065;-74
2021/05/05 08:31:13;;;;;;;16.33;3.88;;;;;;;7.65;71.51;100648.84;5012053;28;20097;-71
2021/05/05 08:33:41;;;;;;;11.93;3.72;;;;;;;8.30;72.38;100652.59;5007133;28;20934;-71
2021/05/05 08:36:08;;;;;;;13.13;4.32;;;;;;;8.36;71.16;100660.38;5008141;28;20095;-71
2021/05/05 08:38:35;;;;;;;10.15;3.70;;;;;;;7.70;73.00;100648.72;5010030;28;20163;-77
2021/05/05 08:41:04;;;;;;;12.15;3.30;;;;;;;7.41;74.85;100668.84;5008445;28;20057;-76
2021/05/05 08:43:33;;;;;;;9.65;2.40;;;;;;;7.26;72.33;100688.63;5014891;28;20092;-76
2021/05/05 08:46:01;;;;;;;7.13;2.45;;;;;;;7.46;74.16;100675.78;5011922;28;20057;-76
2021/05/05 08:48:28;;;;;;;15.25;2.60;;;;;;;7.95;72.44;100694.16;5014609;28;20409;-76
2021/05/05 08:50:56;;;;;;;12.20;3.53;;;;;;;8.07;73.25;100670.00;5021401;28;20061;-70
2021/05/05 08:53:23;;;;;;;13.88;3.17;;;;;;;8.51;69.51;100683.97;5010751;28;20098;-69
2021/05/05 08:55:50;;;;;;;13.93;2.70;;;;;;;8.35;70.20;100693.22;5008598;28;20083;-69
2021/05/05 08:58:16;;;;;;;8.35;2.95;;;;;;;8.19;70.38;100693.59;5009497;28;20057;-70
2021/05/05 09:00:43;;;;;;;6.78;1.75;;;;;;;8.41;68.36;100712.56;5014076;28;20061;-70
2021/05/05 09:03:10;;;;;;;10.35;2.67;;;;;;;9.03;68.86;100705.63;5011329;28;20057;-68
2021/05/05 09:06:04;;;;;;;10.70;2.67;;;;;;;8.97;65.17;100713.78;5012049;28;20081;-69
2021/05/05 09:08:32;;;;;;;11.43;2.67;;;;;;;8.58;67.98;100719.25;5007817;28;20183;-69
2021/05/05 09:11:05;;;;;;;11.57;2.97;;;;;;;8.22;66.92;100724.53;5011579;28;20129;-70
2021/05/05 09:13:52;;;;;;;12.75;3.60;;;;;;;8.71;67.43;100723.34;5011382;28;20057;-69
2021/05/05 09:16:22;;;;;;;11.98;2.17;;;;;;;9.16;64.58;100720.34;5011941;28;20065;-70
2021/05/05 09:18:58;;;;;;;8.55;3.70;;;;;;;8.60;66.16;100739.59;5008046;28;20063;-69
2021/05/05 09:21:29;;;;;;;10.13;2.65;;;;;;;8.53;66.05;100751.28;5008646;28;20176;-71
2021/05/05 09:24:20;;;;;;;5.63;2.20;;;;;;;8.56;66.05;100732.59;5006724;28;20058;-71
2021/05/05 09:26:49;;;;;;;6.68;2.03;;;;;;;9.04;65.73;100742.00;5023730;28;20377;-72
2021/05/05 09:29:16;;;;;;;11.23;3.65;;;;;;;8.33;66.35;100732.28;5009002;28;20060;-72
2021/05/05 09:31:45;;;;;;;13.70;2.67;;;;;;;8.96;67.63;100759.94;5010726;28;20211;-76
2021/05/05 09:34:12;;;;;;;7.57;2.15;;;;;;;8.63;66.52;100751.91;5011814;28;20152;-75
2021/05/05 09:36:42;;;;;;;7.38;2.80;;;;;;;8.96;64.41;100763.47;5008426;28;20061;-75
2021/05/05 09:39:10;;;;;;;9.25;2.25;;;;;;;9.20;63.71;100758.41;5011005;28;20124;-76
2021/05/05 09:41:43;;;;;;;7.85;2.50;;;;;;;9.80;64.64;100755.81;5008949;28;20064;-76
2021/05/05 09:44:10;;;;;;;8.30;2.17;;;;;;;9.60;63.42;100777.69;5007078;28;20120;-77
2021/05/05 09:46:42;;;;;;;8.18;2.17;;;;;;;9.21;62.29;100781.47;5007141;28;20651;-76
2021/05/05 09:49:17;;;;;;;4.05;2.00;;;;;;;9.79;61.36;100778.94;5021882;28;20244;-75
2021/05/05 09:51:49;;;;;;;9.05;2.67;;;;;;;10.03;62.20;100774.63;5010565;28;20064;-77
2021/05/05 09:54:23;;;;;;;11.48;2.20;;;;;;;10.22;60.43;100782.94;5021151;28;20057;-73
2021/05/05 09:56:51;;;;;;;8.90;2.70;;;;;;;10.01;59.40;100776.50;5010263;28;20061;-73
2021/05/05 09:59:19;;;;;;;16.13;4.53;;;;;;;9.93;61.15;100777.59;5006470;28;20246;-73
2021/05/05 10:02:10;;;;;;;11.40;3.28;;;;;;;10.91;59.17;100774.47;5009546;28;20065;-73
2021/05/05 10:04:37;;;;;;;10.50;2.85;;;;;;;9.89;61.31;100803.50;4997751;28;20120;-73
2021/05/05 10:07:05;;;;;;;10.23;3.50;;;;;;;9.79;61.67;100810.91;5012895;28;20179;-72
2021/05/05 10:09:32;;;;;;;11.50;3.42;;;;;;;9.76;61.62;100810.13;5014234;28;20062;-72
2021/05/05 10:11:59;;;;;;;11.52;2.95;;;;;;;8.87;61.54;100824.94;5014574;28;20146;-72
2021/05/05 10:14:26;;;;;;;17.15;3.47;;;;;;;9.10;61.68;100827.00;5017579;28;20219;-73
2021/05/05 10:16:53;;;;;;;12.50;3.83;;;;;;;9.24;62.68;100820.44;5015055;28;20065;-72
2021/05/05 10:19:24;;;;;;;15.35;3.70;;;;;;;9.19;61.00;100833.84;5016778;28;20085;-72
2021/05/05 10:21:53;;;;;;;12.50;2.72;;;;;;;9.20;62.91;100830.28;5018424;28;20448;-77
2021/05/05 10:24:24;;;;;;;11.27;3.20;;;;;;;8.81;64.68;100840.19;5021761;28;20140;-77
2021/05/05 10:26:51;;;;;;;12.07;3.05;;;;;;;8.94;63.20;100850.47;5014822;28;20057;-72
2021/05/05 10:29:18;;;;;;;11.27;3.50;;;;;;;8.91;64.35;100850.53;5020093;28;20061;-72
2021/05/05 10:31:49;;;;;;;12.95;2.53;;;;;;;8.53;63.43;100878.94;5021225;28;20061;-72
2021/05/05 10:34:21;;;;;;;5.03;1.98;;;;;;;8.94;61.25;100870.91;5019461;28;20069;-72
2021/05/05 10:36:51;;;;;;;6.65;1.90;;;;;;;8.89;62.70;100886.09;5019221;28;20121;-72
2021/05/05 10:39:45;;;;;;;5.85;1.80;;;;;;;8.99;64.51;100879.66;5016441;28;20049;-77
2021/05/05 10:42:16;;;;;;;4.15;1.67;;;;;;;8.76;61.70;100890.84;5021422;28;20061;-79
2021/05/05 10:44:47;;;;;;;6.82;2.53;;;;;;;8.88;62.33;100895.84;5020629;28;20244;-78
2021/05/05 10:47:21;;;;;;;8.07;2.30;;;;;;;9.39;62.51;100897.25;5020269;28;20069;-77
2021/05/05 10:50:16;;;;;;;12.07;3.00;;;;;;;10.33;61.22;100897.31;5019031;28;20061;-78
2021/05/05 10:53:05;;;;;;;8.65;3.30;;;;;;;10.67;60.66;100885.59;5018781;28;20096;-79
2021/05/05 10:55:44;;;;;;;15.23;3.63;;;;;;;10.09;60.88;100885.53;5018644;28;20109;-73
2021/05/05 10:58:14;;;;;;;15.27;4.53;;;;;;;9.98;61.55;100893.88;5017262;28;20064;-76
2021/05/05 11:00:57;;;;;;;13.73;3.97;;;;;;;9.44;60.94;100906.00;5032638;28;20053;-73
2021/05/05 11:03:54;;;;;;;13.55;4.43;;;;;;;9.22;61.98;100918.13;5012372;28;20079;-73
2021/05/05 11:06:48;;;;;;;16.60;4.63;;;;;;;9.98;59.63;100927.66;5014197;28;20119;-72
2021/05/05 11:09:41;;;;;;;15.35;4.65;;;;;;;10.65;58.38;100911.47;5019637;28;20065;-73
2021/05/05 11:12:44;;;;;;;14.68;4.35;;;;;;;9.38;57.70;100908.84;5011021;28;20124;-73
2021/05/05 11:15:14;;;;;;;17.38;3.90;;;;;;;8.83;60.21;100928.81;5016582;28;20144;-73
2021/05/05 11:17:41;;;;;;;11.63;3.58;;;;;;;8.90;60.46;100957.88;5011756;28;20310;-73
2021/05/05 11:20:10;;;;;;;14.55;3.67;;;;;;;9.02;60.83;100938.09;5014704;28;20092;-73
2021/05/05 11:22:48;;;;;;;15.20;4.63;;;;;;;9.14;60.77;100943.16;5014779;28;20089;-72
2021/05/05 11:25:26;;;;;;;15.48;4.30;;;;;;;9.33;61.42;100959.53;5021162;28;20061;-71
2021/05/05 11:27:56;;;;;;;13.45;4.05;;;;;;;9.66;60.75;100943.59;5035013;28;20057;-73
2021/05/05 11:30:31;;;;;;;14.85;4.18;;;;;;;9.09;61.30;100976.09;5018705;28;20159;-71
2021/05/05 11:32:59;;;;;;;16.30;3.58;;;;;;;8.89;60.79;100972.13;5020521;28;20061;-73
2021/05/05 11:35:28;;;;;;;11.57;3.75;;;;;;;8.63;60.27;100974.47;5032911;28;20536;-73
2021/05/05 11:38:08;;;;;;;15.57;4.10;;;;;;;8.59;60.68;100974.53;5017755;28;20136;-73
2021/05/05 11:40:35;;;;;;;11.48;4.07;;;;;;;9.04;61.52;100980.66;5018531;28;20071;-71